Time;durP1;ratioP1;P1;durP2;ratioP2;P2;SDS_P1;SDS_P2;PMS_P1;PMS_P2;Temp;Humidity;BMP_temperature;BMP_pressure;BME280_temperature;BME280_humidity;BME280_pressure;Samples;Min_cycle;Max_cycle;Signal;HPM_P1;HPM_P2
2024/01/06 00:01:47;;;;;;;32.45;29.15;;;2.50;99.90;;;;;;5097057;27;20130;-82
2024/01/06 00:04:13;;;;;;;21.73;19.83;;;2.40;99.90;;;;;;5130774;27;20043;-83
2024/01/06 00:06:38;;;;;;;29.23;26.13;;;2.40;99.90;;;;;;5104241;27;20038;-83
2024/01/06 00:09:04;;;;;;;27.33;24.60;;;2.40;99.90;;;;;;5114021;27;20035;-83
2024/01/06 00:11:30;;;;;;;28.42;25.52;;;2.40;99.90;;;;;;5130972;27;20061;-82
2024/01/06 00:13:55;;;;;;;29.90;26.95;;;2.40;99.90;;;;;;5131242;27;20057;-83
2024/01/06 00:16:21;;;;;;;30.77;27.65;;;2.30;99.90;;;;;;5132322;27;20118;-82
2024/01/06 00:18:47;;;;;;;31.48;28.40;;;2.30;99.90;;;;;;5118037;27;20445;-82
2024/01/06 00:21:13;;;;;;;31.27;27.88;;;2.30;99.90;;;;;;5140395;27;20101;-82
2024/01/06 00:23:40;;;;;;;29.33;26.33;;;2.30;99.90;;;;;;5115813;27;20082;-82
2024/01/06 00:26:07;;;;;;;31.88;26.52;;;2.30;99.90;;;;;;5119024;27;20118;-82
2024/01/06 00:28:32;;;;;;;29.80;26.63;;;2.30;99.90;;;;;;5094020;27;20035;-82
2024/01/06 00:30:58;;;;;;;31.80;28.30;;;2.30;99.90;;;;;;5117023;27;20045;-82
2024/01/06 00:33:24;;;;;;;30.88;27.52;;;2.30;99.90;;;;;;5119582;27;20088;-82
2024/01/06 00:35:49;;;;;;;32.53;28.88;;;2.30;99.90;;;;;;5118782;27;20046;-82
2024/01/06 00:38:15;;;;;;;34.67;26.38;;;2.30;99.90;;;;;;5121851;27;20068;-83
2024/01/06 00:40:40;;;;;;;32.13;26.42;;;2.30;99.90;;;;;;5125395;27;20075;-82
2024/01/06 00:43:06;;;;;;;31.75;28.42;;;2.30;99.90;;;;;;5146750;27;20053;-82
2024/01/06 00:45:31;;;;;;;29.95;26.70;;;2.30;99.90;;;;;;5110031;27;20034;-83
2024/01/06 00:47:57;;;;;;;28.35;25.40;;;2.30;99.90;;;;;;5128957;27;20394;-82
2024/01/06 00:50:23;;;;;;;29.58;25.75;;;2.30;99.90;;;;;;5113561;27;20075;-83
2024/01/06 00:52:52;;;;;;;29.80;26.65;;;2.30;99.90;;;;;;5108782;27;20150;-83
2024/01/06 00:55:18;;;;;;;31.60;27.95;;;2.30;99.90;;;;;;5116285;27;20483;-82
2024/01/06 00:57:44;;;;;;;32.85;27.60;;;2.30;99.90;;;;;;5110490;27;20062;-82
2024/01/06 01:00:10;;;;;;;30.17;27.20;;;2.30;99.90;;;;;;5143992;27;20097;-83
2024/01/06 01:02:36;;;;;;;31.95;27.88;;;2.30;99.90;;;;;;5135113;27;20806;-82
2024/01/06 01:05:02;;;;;;;25.40;22.90;;;2.30;99.90;;;;;;5110552;28;20761;-83
2024/01/06 01:07:27;;;;;;;27.38;24.58;;;2.30;99.90;;;;;;5124950;27;20027;-82
2024/01/06 01:09:53;;;;;;;23.27;21.00;;;2.30;99.90;;;;;;5127017;28;20096;-82
2024/01/06 01:12:19;;;;;;;20.90;19.15;;;2.30;99.90;;;;;;5116357;28;20507;-82
2024/01/06 01:14:44;;;;;;;19.60;17.70;;;2.30;99.90;;;;;;5123901;28;20399;-82
2024/01/06 01:17:10;;;;;;;31.85;28.75;;;2.30;99.90;;;;;;5096691;28;20075;-82
2024/01/06 01:19:35;;;;;;;32.08;28.98;;;2.20;99.90;;;;;;5103637;28;20643;-83
2024/01/06 01:22:01;;;;;;;28.60;24.63;;;2.20;99.90;;;;;;5113691;28;20055;-83
2024/01/06 01:24:26;;;;;;;26.90;24.00;;;2.10;99.90;;;;;;5111954;28;20087;-83
2024/01/06 01:26:52;;;;;;;28.40;25.35;;;2.20;99.90;;;;;;5094500;28;20742;-82
2024/01/06 01:29:20;;;;;;;29.20;25.52;;;2.20;99.90;;;;;;5089468;28;20075;-83
2024/01/06 01:31:46;;;;;;;30.75;26.77;;;2.20;99.90;;;;;;5121606;28;20050;-83
2024/01/06 01:34:11;;;;;;;30.42;26.23;;;2.20;99.90;;;;;;5130498;27;20044;-83
2024/01/06 01:36:37;;;;;;;29.90;26.70;;;2.20;99.90;;;;;;5112451;28;20138;-83
2024/01/06 01:39:03;;;;;;;27.98;24.17;;;2.20;99.90;;;;;;5122571;28;20035;-82
2024/01/06 01:41:28;;;;;;;27.88;24.92;;;2.20;99.90;;;;;;5086332;28;20043;-82
2024/01/06 01:43:58;;;;;;;30.95;26.08;;;2.20;99.90;;;;;;5105187;28;20070;-83
2024/01/06 01:46:30;;;;;;;27.70;24.73;;;2.20;99.90;;;;;;5120502;28;20054;-83
2024/01/06 01:48:57;;;;;;;29.65;26.48;;;2.20;99.90;;;;;;5118656;28;20395;-83
2024/01/06 01:51:26;;;;;;;28.85;25.75;;;2.20;99.90;;;;;;5115013;28;20130;-83
2024/01/06 01:53:53;;;;;;;33.33;25.52;;;2.10;99.90;;;;;;5123310;28;20038;-83
2024/01/06 01:56:19;;;;;;;29.58;24.77;;;2.10;99.90;;;;;;5106890;28;20035;-82
2024/01/06 01:58:46;;;;;;;29.77;26.08;;;2.10;99.90;;;;;;5118607;28;20035;-82
2024/01/06 02:01:12;;;;;;;28.85;23.92;;;2.10;99.90;;;;;;5111179;28;20045;-84
2024/01/06 02:03:40;;;;;;;22.55;20.40;;;2.10;99.90;;;;;;5118143;27;20095;-82
2024/01/06 02:06:06;;;;;;;21.77;19.63;;;2.20;99.90;;;;;;5126034;27;20087;-82
2024/01/06 02:08:31;;;;;;;16.95;15.63;;;2.10;99.90;;;;;;5124224;27;20038;-82
2024/01/06 02:10:57;;;;;;;27.85;23.33;;;2.10;99.90;;;;;;5142568;27;20058;-82
2024/01/06 02:13:24;;;;;;;20.48;18.42;;;2.10;99.90;;;;;;5099595;27;20060;-82
2024/01/06 02:15:49;;;;;;;24.20;21.70;;;2.10;99.90;;;;;;5118778;27;20042;-82
2024/01/06 02:18:15;;;;;;;16.75;15.40;;;2.10;99.90;;;;;;5101373;27;20394;-83
2024/01/06 02:20:43;;;;;;;23.63;21.20;;;2.00;99.90;;;;;;5114899;27;20042;-82
2024/01/06 02:23:09;;;;;;;21.42;19.40;;;2.00;99.90;;;;;;5109301;27;20410;-82
2024/01/06 02:25:35;;;;;;;24.67;22.08;;;1.90;99.90;;;;;;5119618;27;20042;-82
2024/01/06 02:28:01;;;;;;;17.75;16.23;;;2.00;99.90;;;;;;5099683;27;20042;-83
2024/01/06 02:30:26;;;;;;;23.23;20.85;;;1.90;99.90;;;;;;5104894;27;20707;-82
2024/01/06 02:32:52;;;;;;;21.80;19.52;;;1.90;99.90;;;;;;5136433;27;20039;-82
2024/01/06 02:35:18;;;;;;;17.55;16.02;;;1.80;99.90;;;;;;5091387;27;20122;-82
2024/01/06 02:37:43;;;;;;;18.77;17.10;;;1.80;99.90;;;;;;5098605;27;20552;-82
2024/01/06 02:40:10;;;;;;;19.02;17.27;;;1.90;99.90;;;;;;5143856;27;20027;-82
2024/01/06 02:42:35;;;;;;;19.40;17.38;;;1.80;99.90;;;;;;5100123;27;20038;-82
2024/01/06 02:45:01;;;;;;;21.10;19.10;;;1.90;99.90;;;;;;5125498;27;20053;-81
2024/01/06 02:47:26;;;;;;;18.75;17.00;;;1.80;99.90;;;;;;5107309;27;20053;-82
2024/01/06 02:49:52;;;;;;;19.23;17.50;;;1.80;99.90;;;;;;5125050;27;20035;-83
2024/01/06 02:52:18;;;;;;;23.48;21.02;;;1.80;99.90;;;;;;5111776;27;20046;-82
2024/01/06 02:54:43;;;;;;;24.50;21.90;;;1.80;99.90;;;;;;5142748;27;20268;-82
2024/01/06 02:57:09;;;;;;;19.95;18.23;;;1.80;99.90;;;;;;5110963;27;20423;-82
2024/01/06 02:59:35;;;;;;;25.90;23.38;;;1.80;99.90;;;;;;5121576;27;20035;-82
2024/01/06 03:02:02;;;;;;;20.77;18.85;;;1.80;99.90;;;;;;5126954;27;20052;-83
2024/01/06 03:04:27;;;;;;;18.20;16.38;;;1.80;99.90;;;;;;5116702;27;20406;-82
2024/01/06 03:06:53;;;;;;;17.40;15.77;;;1.80;99.90;;;;;;5111975;27;20042;-82
2024/01/06 03:09:19;;;;;;;19.10;17.48;;;1.80;99.90;;;;;;5126442;27;20042;-83
2024/01/06 03:11:45;;;;;;;24.58;22.17;;;1.80;99.90;;;;;;5113745;27;20121;-83
2024/01/06 03:14:11;;;;;;;23.35;20.73;;;1.80;99.90;;;;;;5142862;27;20151;-83
2024/01/06 03:16:36;;;;;;;25.83;23.23;;;1.80;99.90;;;;;;5116040;27;20045;-82
2024/01/06 03:19:02;;;;;;;20.00;18.15;;;1.80;99.90;;;;;;5142244;27;20053;-82
2024/01/06 03:21:27;;;;;;;21.60;19.55;;;1.80;99.90;;;;;;5124313;27;20175;-82
2024/01/06 03:23:55;;;;;;;25.15;22.55;;;1.80;99.90;;;;;;5116158;27;20054;-83
2024/01/06 03:26:21;;;;;;;20.48;18.70;;;1.80;99.90;;;;;;5116078;27;20133;-82
2024/01/06 03:28:49;;;;;;;19.05;17.27;;;1.80;99.90;;;;;;5117255;27;20165;-82
2024/01/06 03:31:15;;;;;;;19.25;17.50;;;1.80;99.90;;;;;;5111819;27;20036;-82
2024/01/06 03:33:41;;;;;;;17.92;16.25;;;1.80;99.90;;;;;;5130805;27;20403;-82
2024/01/06 03:36:07;;;;;;;25.60;22.30;;;1.80;99.90;;;;;;5108458;27;20472;-82
2024/01/06 03:38:33;;;;;;;20.48;18.65;;;1.80;99.90;;;;;;5129075;27;20472;-83
2024/01/06 03:40:59;;;;;;;27.08;22.85;;;1.80;99.90;;;;;;5113371;27;20032;-82
2024/01/06 03:43:25;;;;;;;24.25;21.15;;;1.80;99.90;;;;;;5102200;27;20506;-82
2024/01/06 03:45:50;;;;;;;24.50;21.52;;;1.80;99.90;;;;;;5114768;27;20036;-83
2024/01/06 03:48:16;;;;;;;19.52;17.42;;;1.80;99.90;;;;;;5126475;27;20784;-82
2024/01/06 03:50:42;;;;;;;23.33;20.90;;;1.80;99.90;;;;;;5102167;27;20553;-82
2024/01/06 03:53:07;;;;;;;28.02;23.42;;;1.70;99.90;;;;;;5094947;28;20685;-82
2024/01/06 03:55:33;;;;;;;27.88;24.55;;;1.80;99.90;;;;;;5105303;27;20038;-83
2024/01/06 03:57:59;;;;;;;29.52;23.83;;;1.80;99.90;;;;;;5102691;28;20043;-82
2024/01/06 04:00:25;;;;;;;28.25;23.38;;;1.70;99.90;;;;;;5097442;27;20491;-82
2024/01/06 04:02:51;;;;;;;25.67;22.95;;;1.70;99.90;;;;;;5112216;27;20043;-82
2024/01/06 04:05:17;;;;;;;26.00;23.52;;;1.70;99.90;;;;;;5104900;27;20036;-83
2024/01/06 04:07:42;;;;;;;28.55;23.35;;;1.80;99.90;;;;;;5119197;27;20046;-82
2024/01/06 04:10:08;;;;;;;28.80;24.15;;;1.80;99.90;;;;;;5107238;28;20044;-83
2024/01/06 04:12:34;;;;;;;23.17;20.95;;;1.70;99.90;;;;;;5107167;27;20032;-83
2024/01/06 04:14:59;;;;;;;26.92;24.08;;;1.70;99.90;;;;;;5127614;27;20035;-82
2024/01/06 04:17:26;;;;;;;24.10;21.33;;;1.80;99.90;;;;;;5128654;27;20042;-83
2024/01/06 04:19:52;;;;;;;27.05;22.33;;;1.80;99.90;;;;;;5098592;27;20088;-82
2024/01/06 04:22:19;;;;;;;24.73;22.25;;;1.70;99.90;;;;;;5113350;27;20059;-83
2024/01/06 04:24:44;;;;;;;27.77;24.77;;;1.80;99.90;;;;;;5069838;27;20055;-82
2024/01/06 04:27:10;;;;;;;20.40;18.40;;;1.80;99.90;;;;;;5084559;28;20052;-82
2024/01/06 04:29:36;;;;;;;19.02;17.27;;;1.80;99.90;;;;;;5092461;27;20487;-83
2024/01/06 04:32:02;;;;;;;17.35;15.77;;;1.80;99.90;;;;;;5119136;27;20142;-82
2024/01/06 04:34:27;;;;;;;17.63;15.95;;;1.80;99.90;;;;;;5097677;27;20039;-83
2024/01/06 04:36:53;;;;;;;23.38;20.95;;;1.80;99.90;;;;;;5113529;27;20565;-82
2024/01/06 04:39:19;;;;;;;29.02;24.10;;;1.80;99.90;;;;;;5129038;27;20035;-83
2024/01/06 04:41:44;;;;;;;26.45;23.73;;;1.80;99.90;;;;;;5106488;28;20036;-82
2024/01/06 04:44:10;;;;;;;26.80;24.20;;;1.80;99.90;;;;;;5093835;27;20031;-83
2024/01/06 04:46:35;;;;;;;25.20;21.58;;;1.70;99.90;;;;;;5093290;27;20671;-82
2024/01/06 04:49:01;;;;;;;26.20;23.55;;;1.80;99.90;;;;;;5079587;28;20075;-82
2024/01/06 04:51:27;;;;;;;25.02;22.50;;;1.80;99.90;;;;;;5073903;28;20043;-83
2024/01/06 04:53:52;;;;;;;20.92;18.77;;;1.80;99.90;;;;;;5090554;28;20504;-82
2024/01/06 04:56:18;;;;;;;19.58;17.75;;;1.80;99.90;;;;;;5109525;27;20036;-83
2024/01/06 04:58:44;;;;;;;18.55;16.83;;;1.90;99.90;;;;;;5080057;27;20035;-82
2024/01/06 05:01:09;;;;;;;22.15;19.20;;;1.80;99.90;;;;;;5093381;28;20074;-82
2024/01/06 05:03:35;;;;;;;22.92;20.38;;;1.80;99.90;;;;;;5089976;28;20506;-82
2024/01/06 05:06:01;;;;;;;18.10;16.58;;;1.80;99.90;;;;;;5087393;27;20043;-83
2024/01/06 05:08:26;;;;;;;23.40;21.05;;;1.80;99.90;;;;;;5092699;27;20045;-82
2024/01/06 05:10:53;;;;;;;24.08;21.50;;;1.80;99.90;;;;;;5096940;28;20034;-83
2024/01/06 05:13:19;;;;;;;24.15;21.52;;;1.80;99.90;;;;;;5085872;28;20082;-83
2024/01/06 05:15:44;;;;;;;25.75;23.05;;;1.80;99.90;;;;;;5127374;28;20039;-82
2024/01/06 05:18:10;;;;;;;23.73;21.25;;;1.80;99.90;;;;;;5089676;28;20042;-83
2024/01/06 05:20:36;;;;;;;23.85;21.23;;;1.80;99.90;;;;;;5115270;28;20476;-82
2024/01/06 05:23:01;;;;;;;25.27;22.55;;;1.80;99.90;;;;;;5090575;28;20051;-82
2024/01/06 05:25:27;;;;;;;20.10;18.05;;;1.80;99.90;;;;;;5112428;28;20515;-83
2024/01/06 05:27:52;;;;;;;24.88;22.30;;;1.80;99.90;;;;;;5098296;27;20529;-82
2024/01/06 05:30:18;;;;;;;23.38;20.60;;;1.80;99.90;;;;;;5139276;27;20031;-82
2024/01/06 05:32:44;;;;;;;17.45;16.02;;;1.80;99.90;;;;;;5114979;27;20687;-83
2024/01/06 05:35:09;;;;;;;24.98;21.38;;;1.80;99.90;;;;;;5102658;28;20055;-82
2024/01/06 05:37:35;;;;;;;22.45;20.15;;;1.80;99.90;;;;;;5088965;27;20050;-82
2024/01/06 05:40:03;;;;;;;22.70;20.52;;;1.80;99.90;;;;;;5100762;27;20035;-82
2024/01/06 05:42:29;;;;;;;22.42;20.33;;;1.80;99.90;;;;;;5104083;27;20130;-83
2024/01/06 05:44:55;;;;;;;23.33;19.95;;;1.80;99.90;;;;;;5093397;28;20517;-82
2024/01/06 05:47:20;;;;;;;23.55;21.15;;;1.80;99.90;;;;;;5093144;27;20042;-82
2024/01/06 05:49:46;;;;;;;24.88;21.10;;;1.80;99.90;;;;;;5101464;28;20039;-82
2024/01/06 05:52:12;;;;;;;22.65;19.98;;;1.80;99.90;;;;;;5092746;27;20039;-82
2024/01/06 05:54:42;;;;;;;24.30;21.77;;;1.80;99.90;;;;;;5116701;27;20111;-82
2024/01/06 05:57:08;;;;;;;23.20;20.73;;;1.90;99.90;;;;;;5119407;27;20479;-82
2024/01/06 05:59:34;;;;;;;21.58;19.50;;;1.80;99.90;;;;;;5146192;27;20075;-82
2024/01/06 06:02:00;;;;;;;23.30;20.85;;;1.80;99.90;;;;;;5135210;27;20089;-82
2024/01/06 06:04:25;;;;;;;25.88;23.10;;;1.90;99.90;;;;;;5104453;27;20070;-82
2024/01/06 06:06:51;;;;;;;23.98;21.55;;;1.90;99.90;;;;;;5118156;27;20041;-81
2024/01/06 06:09:17;;;;;;;24.65;22.13;;;1.80;99.90;;;;;;5152077;27;20524;-82
2024/01/06 06:11:43;;;;;;;23.80;21.33;;;1.90;99.90;;;;;;5126967;27;20039;-82
2024/01/06 06:14:09;;;;;;;25.83;23.17;;;1.80;99.90;;;;;;5148523;27;20072;-83
2024/01/06 06:16:34;;;;;;;25.88;23.23;;;1.80;99.90;;;;;;5134747;27;20059;-82
2024/01/06 06:19:00;;;;;;;25.38;22.85;;;1.90;99.90;;;;;;5096637;27;20077;-82
2024/01/06 06:21:25;;;;;;;24.77;22.38;;;1.90;99.90;;;;;;5113945;27;20054;-83
2024/01/06 06:23:51;;;;;;;25.48;22.83;;;1.90;99.90;;;;;;5105457;27;20047;-82
2024/01/06 06:26:17;;;;;;;25.80;22.95;;;1.90;99.90;;;;;;5097617;27;20088;-82
2024/01/06 06:28:43;;;;;;;24.90;22.48;;;1.90;99.90;;;;;;5113757;27;20035;-82
2024/01/06 06:31:09;;;;;;;24.42;22.00;;;1.90;99.90;;;;;;5104362;27;20114;-82
2024/01/06 06:33:34;;;;;;;28.20;23.40;;;1.90;99.90;;;;;;5105385;27;20122;-82
2024/01/06 06:36:01;;;;;;;24.85;22.38;;;1.90;99.90;;;;;;5135542;27;20046;-82
2024/01/06 06:38:27;;;;;;;25.75;22.90;;;1.90;99.90;;;;;;5115279;27;20042;-82
2024/01/06 06:40:53;;;;;;;23.45;21.25;;;1.90;99.90;;;;;;5113575;27;20031;-82
2024/01/06 06:43:18;;;;;;;24.52;21.80;;;1.90;99.90;;;;;;5113688;27;20074;-82
2024/01/06 06:45:44;;;;;;;24.90;21.23;;;1.90;99.90;;;;;;5125586;27;20495;-82
2024/01/06 06:48:10;;;;;;;25.83;23.20;;;1.90;99.90;;;;;;5102504;27;20061;-82
2024/01/06 06:50:36;;;;;;;24.25;21.92;;;1.90;99.90;;;;;;5116987;27;20031;-83
2024/01/06 06:53:02;;;;;;;24.75;22.33;;;1.90;99.90;;;;;;5134127;27;20058;-82
2024/01/06 06:55:27;;;;;;;21.58;19.52;;;1.90;99.90;;;;;;5130847;27;20058;-82
2024/01/06 06:57:53;;;;;;;27.00;24.23;;;1.90;99.90;;;;;;5097570;27;20039;-83
2024/01/06 07:00:19;;;;;;;26.48;23.45;;;1.90;99.90;;;;;;5114201;27;20054;-82
2024/01/06 07:02:45;;;;;;;25.95;23.27;;;1.90;99.90;;;;;;5128053;27;20039;-82
2024/01/06 07:05:11;;;;;;;23.48;21.02;;;1.90;99.90;;;;;;5095055;28;20074;-82
2024/01/06 07:07:37;;;;;;;23.08;20.13;;;1.90;99.90;;;;;;5092732;28;20102;-82
2024/01/06 07:10:05;;;;;;;24.33;21.95;;;1.90;99.90;;;;;;5102610;27;20534;-83
2024/01/06 07:12:31;;;;;;;24.30;21.52;;;1.90;99.90;;;;;;5120739;27;20039;-83
2024/01/06 07:14:58;;;;;;;23.55;21.20;;;1.90;99.90;;;;;;5120057;27;20690;-82
2024/01/06 07:17:24;;;;;;;25.67;21.08;;;1.90;99.90;;;;;;5099465;27;20034;-83
2024/01/06 07:19:50;;;;;;;27.98;24.20;;;1.80;99.90;;;;;;5111918;27;20047;-82
2024/01/06 07:22:18;;;;;;;27.25;24.45;;;1.80;99.90;;;;;;5092311;28;20063;-82
2024/01/06 07:24:44;;;;;;;24.23;20.35;;;1.80;99.90;;;;;;5077709;28;20055;-83
2024/01/06 07:27:09;;;;;;;24.38;21.83;;;1.80;99.90;;;;;;5088368;28;20048;-83
2024/01/06 07:29:35;;;;;;;23.00;20.45;;;1.90;99.90;;;;;;5090822;28;20040;-83
2024/01/06 07:32:01;;;;;;;26.80;23.77;;;1.90;99.90;;;;;;5088365;28;20054;-82
2024/01/06 07:34:27;;;;;;;19.65;18.05;;;1.90;99.90;;;;;;5065735;28;20141;-82
2024/01/06 07:36:53;;;;;;;26.67;23.67;;;1.90;99.90;;;;;;5107763;28;20028;-83
2024/01/06 07:39:18;;;;;;;28.35;23.25;;;1.90;99.90;;;;;;5079306;28;20519;-82
2024/01/06 07:41:46;;;;;;;28.33;24.40;;;1.80;99.90;;;;;;5079111;28;20047;-82
2024/01/06 07:44:12;;;;;;;28.33;24.55;;;1.80;99.90;;;;;;5069027;28;20758;-83
2024/01/06 07:46:42;;;;;;;29.85;25.77;;;1.90;99.90;;;;;;5080769;28;20077;-83
2024/01/06 07:49:08;;;;;;;30.38;26.45;;;1.90;99.90;;;;;;5064451;28;20044;-82
2024/01/06 07:51:34;;;;;;;32.25;27.60;;;1.90;99.90;;;;;;5066695;28;20048;-82
2024/01/06 07:54:01;;;;;;;29.23;26.33;;;1.90;99.90;;;;;;5083088;28;20075;-83
2024/01/06 07:56:26;;;;;;;29.98;25.70;;;1.90;99.90;;;;;;5055502;28;20040;-83
2024/01/06 07:58:55;;;;;;;24.73;22.38;;;2.00;99.90;;;;;;5071124;28;20911;-83
2024/01/06 08:01:20;;;;;;;23.77;21.58;;;1.90;99.90;;;;;;5081446;28;20036;-82
2024/01/06 08:03:46;;;;;;;29.58;26.15;;;1.90;99.90;;;;;;5079893;28;20404;-83
2024/01/06 08:06:12;;;;;;;27.00;22.92;;;1.90;99.90;;;;;;5058281;28;20043;-82
2024/01/06 08:08:37;;;;;;;22.85;20.92;;;2.00;99.90;;;;;;5083124;28;20046;-83
2024/01/06 08:11:03;;;;;;;28.85;25.95;;;1.90;99.90;;;;;;5086839;28;20035;-83
2024/01/06 08:13:28;;;;;;;29.13;25.75;;;2.00;99.90;;;;;;5075868;28;20044;-83
2024/01/06 08:15:54;;;;;;;32.67;28.38;;;1.90;99.90;;;;;;5079245;28;20057;-82
2024/01/06 08:18:21;;;;;;;33.13;29.50;;;2.00;99.90;;;;;;5070813;28;20036;-83
2024/01/06 08:20:46;;;;;;;28.65;25.60;;;2.00;99.90;;;;;;5089423;28;20028;-83
2024/01/06 08:23:12;;;;;;;30.88;27.30;;;2.00;99.90;;;;;;5107662;28;20051;-83
2024/01/06 08:25:38;;;;;;;31.30;27.27;;;2.00;99.90;;;;;;5120052;27;20043;-82
2024/01/06 08:28:04;;;;;;;25.42;23.08;;;2.00;99.90;;;;;;5124853;27;20089;-82
2024/01/06 08:30:29;;;;;;;35.20;31.60;;;2.00;99.90;;;;;;5138207;27;20142;-83
2024/01/06 08:32:55;;;;;;;24.67;22.50;;;2.00;99.90;;;;;;5097572;27;20062;-83
2024/01/06 08:35:20;;;;;;;29.77;26.90;;;2.00;99.90;;;;;;5111573;27;20037;-83
2024/01/06 08:37:46;;;;;;;32.35;28.75;;;2.00;99.90;;;;;;5121228;27;20063;-82
2024/01/06 08:40:12;;;;;;;29.98;27.02;;;2.10;99.90;;;;;;5138634;27;20039;-83
2024/01/06 08:42:38;;;;;;;27.20;24.40;;;2.10;99.90;;;;;;5117256;27;20039;-83
2024/01/06 08:45:04;;;;;;;28.50;24.85;;;2.10;99.90;;;;;;5138468;27;20509;-83
2024/01/06 08:47:30;;;;;;;29.88;26.73;;;2.10;99.90;;;;;;5115628;27;20035;-83
2024/01/06 08:49:56;;;;;;;32.28;28.90;;;2.10;99.90;;;;;;5128491;27;20034;-83
2024/01/06 08:52:21;;;;;;;27.50;25.00;;;2.10;99.90;;;;;;5118923;27;20091;-82
2024/01/06 08:54:49;;;;;;;33.20;27.73;;;2.10;99.90;;;;;;5113491;27;20487;-83
2024/01/06 08:57:15;;;;;;;30.52;26.55;;;2.20;99.90;;;;;;5110080;27;20483;-82
2024/01/06 08:59:40;;;;;;;23.75;21.70;;;2.20;99.90;;;;;;5105583;27;20115;-83
2024/01/06 09:02:06;;;;;;;28.27;25.27;;;2.30;99.90;;;;;;5135711;27;20411;-82
2024/01/06 09:04:31;;;;;;;23.10;20.77;;;2.20;99.90;;;;;;5113745;27;20042;-82
2024/01/06 09:06:57;;;;;;;26.08;23.20;;;2.30;99.90;;;;;;5115502;27;20438;-82
2024/01/06 09:09:23;;;;;;;30.02;26.85;;;2.30;99.90;;;;;;5127186;27;20110;-82
2024/01/06 09:11:49;;;;;;;31.65;28.33;;;2.30;99.90;;;;;;5145404;27;20046;-82
2024/01/06 09:14:16;;;;;;;21.38;19.38;;;2.30;99.90;;;;;;5110253;27;20045;-83
2024/01/06 09:16:42;;;;;;;27.52;24.73;;;2.30;99.90;;;;;;5097761;27;20066;-83
2024/01/06 09:19:07;;;;;;;28.00;24.92;;;2.30;99.90;;;;;;5119363;27;20073;-82
2024/01/06 09:21:33;;;;;;;28.38;25.38;;;2.30;99.90;;;;;;5148092;27;20045;-82
2024/01/06 09:24:00;;;;;;;22.40;20.23;;;2.30;99.90;;;;;;5140543;27;20078;-82
2024/01/06 09:26:26;;;;;;;27.45;24.58;;;2.40;99.90;;;;;;5114406;27;20081;-83
2024/01/06 09:28:51;;;;;;;24.50;21.98;;;2.30;99.90;;;;;;5110662;27;20070;-82
2024/01/06 09:31:17;;;;;;;18.83;17.15;;;2.40;99.90;;;;;;5120518;27;20039;-83
2024/01/06 09:33:42;;;;;;;28.50;25.25;;;2.40;99.90;;;;;;5130803;27;20034;-82
2024/01/06 09:36:11;;;;;;;26.38;23.65;;;2.40;99.90;;;;;;5115857;27;20051;-83
2024/01/06 09:38:37;;;;;;;26.42;23.67;;;2.40;99.90;;;;;;5124308;27;20038;-83
2024/01/06 09:41:03;;;;;;;22.20;20.00;;;2.40;99.90;;;;;;5142868;27;20062;-83
2024/01/06 09:43:30;;;;;;;19.23;17.50;;;2.50;99.90;;;;;;5133787;27;20167;-82
2024/01/06 09:46:07;;;;;;;25.27;22.00;;;2.50;99.90;;;;;;5138592;27;20092;-82
2024/01/06 09:48:37;;;;;;;25.77;23.02;;;2.50;99.90;;;;;;5122432;27;20038;-82
2024/01/06 09:51:04;;;;;;;25.55;22.73;;;2.50;99.90;;;;;;5100927;27;20081;-83
2024/01/06 09:53:36;;;;;;;22.17;19.98;;;2.50;99.90;;;;;;5150737;27;20049;-83
2024/01/06 09:56:03;;;;;;;24.17;21.58;;;2.60;99.90;;;;;;5129007;27;20035;-82
2024/01/06 09:58:32;;;;;;;24.48;22.02;;;2.60;99.90;;;;;;5098032;27;20209;-82
2024/01/06 10:01:00;;;;;;;24.80;21.48;;;2.60;99.90;;;;;;5119735;27;20042;-82
2024/01/06 10:03:26;;;;;;;20.80;18.70;;;2.60;99.90;;;;;;5123794;27;20047;-82
2024/01/06 10:05:52;;;;;;;25.23;22.52;;;2.70;99.90;;;;;;5131197;27;20471;-83
2024/01/06 10:08:18;;;;;;;18.02;16.42;;;2.60;99.90;;;;;;5124266;27;20073;-83
2024/01/06 10:10:45;;;;;;;17.58;16.08;;;2.70;99.90;;;;;;5121832;27;20428;-83
2024/01/06 10:13:10;;;;;;;17.15;15.65;;;2.70;99.90;;;;;;5111136;27;20043;-82
2024/01/06 10:15:36;;;;;;;20.67;18.48;;;2.60;99.90;;;;;;5099363;27;20073;-83
2024/01/06 10:18:03;;;;;;;22.63;20.17;;;2.60;99.90;;;;;;5112203;27;20122;-83
2024/01/06 10:20:29;;;;;;;22.48;20.30;;;2.60;99.90;;;;;;5110741;27;20785;-82
2024/01/06 10:22:55;;;;;;;21.02;18.80;;;2.70;99.90;;;;;;5145240;27;20791;-82
2024/01/06 10:25:23;;;;;;;21.23;19.02;;;2.70;99.90;;;;;;5123868;28;20031;-83
2024/01/06 10:27:49;;;;;;;24.15;20.80;;;2.80;99.90;;;;;;5095630;28;20046;-82
2024/01/06 10:30:18;;;;;;;21.65;19.55;;;2.80;99.90;;;;;;5113057;28;20050;-82
2024/01/06 10:32:44;;;;;;;19.20;17.38;;;2.80;99.90;;;;;;5097905;27;20043;-82
2024/01/06 10:35:09;;;;;;;23.13;20.88;;;2.90;99.90;;;;;;5148068;27;20050;-83
2024/01/06 10:37:36;;;;;;;18.08;16.27;;;2.90;99.90;;;;;;5116030;28;20046;-82
2024/01/06 10:40:12;;;;;;;24.33;21.83;;;3.00;99.90;;;;;;5099592;27;20177;-83
2024/01/06 10:42:39;;;;;;;25.45;22.85;;;3.00;99.90;;;;;;5097820;27;20039;-83
2024/01/06 10:45:09;;;;;;;22.58;20.35;;;3.00;99.90;;;;;;5144416;27;20070;-83
2024/01/06 10:47:35;;;;;;;19.63;17.58;;;3.10;99.90;;;;;;5114889;27;20129;-83
2024/01/06 10:50:01;;;;;;;23.27;20.98;;;3.10;99.90;;;;;;5096190;28;20050;-83
2024/01/06 10:52:28;;;;;;;20.08;17.95;;;3.20;99.90;;;;;;5123913;28;20035;-82
2024/01/06 10:54:57;;;;;;;22.27;20.00;;;3.20;99.90;;;;;;5119545;27;20876;-82
2024/01/06 10:57:24;;;;;;;19.15;17.10;;;3.20;99.90;;;;;;5124767;27;20042;-82
2024/01/06 10:59:51;;;;;;;21.15;17.83;;;3.20;99.90;;;;;;5111884;27;20077;-83
2024/01/06 11:02:17;;;;;;;17.20;15.50;;;3.30;99.90;;;;;;5095555;27;20095;-82
2024/01/06 11:04:47;;;;;;;18.13;16.33;;;3.30;99.90;;;;;;5114783;27;20035;-82
2024/01/06 11:07:18;;;;;;;17.48;15.80;;;3.40;99.90;;;;;;5113926;27;20380;-82
2024/01/06 11:09:56;;;;;;;21.92;19.65;;;3.40;99.90;;;;;;5100343;27;20043;-82
2024/01/06 11:12:21;;;;;;;19.35;17.42;;;3.50;99.90;;;;;;5095656;28;20046;-82
2024/01/06 11:14:47;;;;;;;23.65;21.13;;;3.50;99.90;;;;;;5112275;27;20031;-83
2024/01/06 11:17:13;;;;;;;19.55;17.52;;;3.50;99.90;;;;;;5149800;27;20031;-82
2024/01/06 11:19:40;;;;;;;22.75;20.55;;;3.50;99.90;;;;;;5131047;27;20039;-83
2024/01/06 11:24:42;;;;;;;19.95;17.95;;;3.50;99.90;;;;;;5147286;27;20454;-83
2024/01/06 11:27:09;;;;;;;14.60;13.35;;;3.50;99.90;;;;;;5117134;27;20043;-83
2024/01/06 11:29:36;;;;;;;15.93;14.38;;;3.50;99.90;;;;;;5114311;27;20039;-83
2024/01/06 11:32:24;;;;;;;14.68;13.48;;;3.50;99.90;;;;;;5129933;27;20039;-82
2024/01/06 11:34:52;;;;;;;18.58;16.77;;;3.50;99.90;;;;;;5117075;27;20037;-83
2024/01/06 11:37:39;;;;;;;19.45;17.65;;;3.50;99.90;;;;;;5097526;28;20032;-83
2024/01/06 11:40:35;;;;;;;20.08;18.58;;;3.40;99.90;;;;;;5087398;28;20456;-83
2024/01/06 11:43:03;;;;;;;18.27;16.48;;;3.40;99.90;;;;;;5120800;27;20039;-82
2024/01/06 11:45:29;;;;;;;16.08;14.68;;;3.40;99.90;;;;;;5136223;27;20054;-83
2024/01/06 11:48:01;;;;;;;19.45;17.80;;;3.30;99.90;;;;;;5099667;28;20031;-83
2024/01/06 11:50:27;;;;;;;16.50;14.77;;;3.30;99.90;;;;;;5090178;27;20050;-83
2024/01/06 11:52:54;;;;;;;17.45;15.85;;;3.30;99.90;;;;;;5134678;27;20496;-83
2024/01/06 11:55:20;;;;;;;17.77;16.15;;;3.30;99.90;;;;;;5119716;27;20035;-83
2024/01/06 11:57:47;;;;;;;18.77;17.13;;;3.20;99.90;;;;;;5108640;28;20039;-83
2024/01/06 12:00:14;;;;;;;19.55;17.73;;;3.20;99.90;;;;;;5093264;27;20127;-83
2024/01/06 12:02:40;;;;;;;17.33;15.82;;;3.20;99.90;;;;;;5108667;28;20498;-83
2024/01/06 12:05:11;;;;;;;18.25;16.48;;;3.20;99.90;;;;;;5129262;27;20114;-83
2024/01/06 12:07:37;;;;;;;18.98;17.05;;;3.10;99.90;;;;;;5096955;28;20035;-83
2024/01/06 12:10:03;;;;;;;18.92;17.15;;;3.10;99.90;;;;;;5137155;27;20038;-83
2024/01/06 12:12:29;;;;;;;20.88;18.77;;;3.10;99.90;;;;;;5107623;28;20071;-83
2024/01/06 12:14:55;;;;;;;18.90;17.10;;;3.10;99.90;;;;;;5093206;27;20560;-83
2024/01/06 12:17:21;;;;;;;17.92;16.25;;;3.10;99.90;;;;;;5160325;27;20129;-82
2024/01/06 12:19:47;;;;;;;20.33;18.42;;;3.10;99.90;;;;;;5126457;27;20047;-83
2024/01/06 12:22:14;;;;;;;19.15;17.25;;;3.00;99.90;;;;;;5103674;28;20046;-83
2024/01/06 12:24:41;;;;;;;19.65;17.90;;;3.00;99.90;;;;;;5111075;28;20056;-83
2024/01/06 12:27:10;;;;;;;18.20;16.65;;;3.00;99.90;;;;;;5105248;28;20517;-83
2024/01/06 12:29:41;;;;;;;20.15;18.33;;;2.90;99.90;;;;;;5083636;28;20043;-82
2024/01/06 12:32:07;;;;;;;15.80;14.35;;;2.90;99.90;;;;;;5108645;28;20039;-83
2024/01/06 12:34:35;;;;;;;18.75;16.95;;;2.90;99.90;;;;;;5083495;28;20032;-83